• Join FlightAware (Why Join?)
  • Login
  • US Flag 
01:53AM EDT


 

Airport Tracker/Info


-or-


 

Live Flight TrackerFlight Track Log ✈ DAL1298 ✈ 05-Mar-2012 ✈ PHKO / KOA - KLAX

Flight Track Log - Related Links

Times and Time Zones

All times are in EST time to prevent confusion due to time zone crossing. See the DAL1298 flight status page for this flight to view local times or setup timezone preferences in your user account.

Time Position Orientation Groundspeed Altitude Reporting Facility
EST Latitude Longitude Course Direction KTS MPH feet Rate Location/Type
02:01AM 19.8000 -156.0333 360° North 230 265 2,500  Level Honolulu Center
02:02AM 19.8833 -156.0333 360° North 280 322 5,200 2,580 Climbing Honolulu Center
02:03AM 19.9500 -156.0333 317° Northwest 300 345 7,700 2,640 Climbing Honolulu Center
02:04AM 20.0167 -156.1000 17° North 290 334 10,600 2,040 Climbing Honolulu Center
02:05AM 20.1167 -156.0667 25° Northeast 380 437 11,900 1,860 Climbing Honolulu Center
02:06AM 20.2167 -156.0167 28° Northeast 410 472 14,400 2,280 Climbing Honolulu Center
02:07AM 20.3333 -155.9500 32° Northeast 420 483 16,500 1,980 Climbing Honolulu Center
02:08AM 20.4333 -155.8833 32° Northeast 450 518 18,400 1,740 Climbing Honolulu Center
02:09AM 20.5333 -155.8167 65° Northeast 450 518 20,100 1,740 Climbing Honolulu Center
02:10AM 20.6000 -155.6667 65° Northeast 480 552 22,000 1,680 Climbing Honolulu Center
02:11AM 20.6500 -155.5500 62° Northeast 480 552 23,600 1,500 Climbing Honolulu Center
02:12AM 20.7167 -155.4167 68° East 500 575 25,000 1,320 Climbing Honolulu Center
02:13AM 20.7667 -155.2833 65° Northeast 500 575 26,300 1,140 Climbing Honolulu Center
02:14AM 20.8333 -155.1333 62° Northeast 510 587 27,400 1,020 Climbing Honolulu Center
02:15AM 20.9000 -155.0000 65° Northeast 530 610 28,400 1,320 Climbing Honolulu Center
02:16AM 20.9667 -154.8500 65° Northeast 540 621 30,100 1,860 Climbing Honolulu Center
02:17AM 21.0167 -154.7333 62° Northeast 510 587 32,200 1,620 Climbing Honolulu Center
02:18AM 21.0833 -154.6000 67° East 500 575 33,400 840 Climbing Honolulu Center
02:20AM 21.1500 -154.4333 62° Northeast 510 587 34,000 600 Climbing Honolulu Center
02:21AM 21.2167 -154.3000 70° East 520 598 34,700 600 Climbing Honolulu Center
02:22AM 21.2667 -154.1500 64° Northeast 530 610 35,300 540 Climbing Honolulu Center
02:23AM 21.3333 -154.0000 64° Northeast 540 621 35,900 600 Climbing Honolulu Center
02:24AM 21.4000 -153.8500 62° Northeast 540 621 36,500 540 Climbing Honolulu Center
02:25AM 21.4667 -153.7167 64° Northeast 550 633 37,000 240 Climbing Honolulu Center
02:26AM 21.5333 -153.5667 64° Northeast 550 633 37,000  Level Honolulu Center
02:27AM 21.6000 -153.4167 67° East 560 644 37,000  Level Honolulu Center
02:28AM 21.6667 -153.2500 61° Northeast 550 633 37,000  Level Honolulu Center
02:38AM 22.3500 -151.8833 62° Northeast 522 601 37,000  Level Oakland Oceanic (ODAPS)
03:25AM 25.2833 -145.5167 65° Northeast 488 562 37,000  Level Oakland Oceanic (ODAPS)
04:11AM 27.9167 -138.8500 68° East 495 570 39,000  Climbing Oakland Oceanic (ODAPS)
05:02AM 30.2833 -131.6333 71° East 495 570 39,000  Level Oakland Oceanic (ODAPS)
05:51AM 32.2178 -124.1317 74° East 473 544 39,000  Level Los Angeles Center
05:52AM 32.2572 -123.9733 80° East 495 570 39,000  Level Los Angeles Center
05:53AM 32.2786 -123.8353 72° East 509 586 39,000  Level Los Angeles Center
05:54AM 32.3297 -123.6506 74° East 504 580 39,000  Level Los Angeles Center
05:55AM 32.3689 -123.4867 77° East 504 580 39,000  Level Los Angeles Center
05:56AM 32.4019 -123.3200 75° East 509 586 39,000  Level Los Angeles Center
05:57AM 32.4383 -123.1581 75° East 515 593 39,000  Level Los Angeles Center
05:58AM 32.4750 -122.9911 75° East 515 593 39,000  Level Los Angeles Center
05:59AM 32.5114 -122.8267 76° East 515 593 39,000  Level Los Angeles Center
06:00AM 32.5475 -122.6594 77° East 515 593 39,000  Level Los Angeles Center
06:01AM 32.5794 -122.4894 74° East 527 606 39,000  Level Los Angeles Center
06:02AM 32.6192 -122.3247 77° East 520 598 39,000  Level Los Angeles Center
06:03AM 32.6528 -122.1544 75° East 527 606 39,000  Level Los Angeles Center
06:04AM 32.6900 -121.9892 76° East 527 606 39,000  Level Los Angeles Center
06:05AM 32.7253 -121.8189 76° East 527 606 39,000  Level Los Angeles Center
06:06AM 32.7603 -121.6481 76° East 521 600 39,000  Level Los Angeles Center
06:07AM 32.7950 -121.4800 76° East 526 605 39,000  Level Los Angeles Center
06:08AM 32.8292 -121.3139 77° East 526 605 39,000  Level Los Angeles Center
06:09AM 32.8614 -121.1453 76° East 521 600 39,000  Level Los Angeles Center
06:10AM 32.8953 -120.9767 75° East 521 600 39,000  Level Los Angeles Center
06:11AM 32.9308 -120.8128 78° East 521 600 39,000  Level Los Angeles Center
06:12AM 32.9625 -120.6414 76° East 521 600 39,000 -360 Level Los Angeles Center
06:13AM 32.9978 -120.4747 78° East 521 600 38,300 -780 Descending Los Angeles Center
06:14AM 33.0264 -120.3078 76° East 521 600 37,500 -1,080 Descending Los Angeles Center
06:15AM 33.0592 -120.1458 79° East 521 600 36,200 -1,860 Descending Los Angeles Center
06:16AM 33.0822 -120.0081 77° East 493 567 33,800 -2,700 Descending Los Angeles Center
06:17AM 33.1125 -119.8458 78° East 481 554 30,900 -3,000 Descending Los Angeles Center
06:18AM 33.1447 -119.6711 77° East 487 560 27,900 -2,760 Descending Los Angeles Center
06:19AM 33.1744 -119.5133 77° East 487 560 25,400 -2,580 Descending Los Angeles Center
06:20AM 33.2036 -119.3606 77° East 480 552 22,800 -2,580 Descending Los Angeles Center
06:21AM 33.2325 -119.2103 79° East 474 545 20,300 -2,520 Descending Los Angeles Center
06:22AM 33.2569 -119.0647 77° East 461 531 17,800 -2,460 Descending Los Angeles Center
06:23AM 33.2853 -118.9214 78° East 447 514 15,400 -2,400 Descending Los Angeles Center
06:24AM 33.3094 -118.7806 72° East 442 509 13,100 -1,800 Descending Los Angeles Center
06:25AM 33.3411 -118.6647 51° Northeast 428 493 11,900 -1,140 Descending Los Angeles Center
06:26AM 33.4122 -118.5597 47° Northeast 399 459 10,900 -900 Descending Los Angeles Center
06:27AM 33.4850 -118.4647 49° Northeast 394 453 10,200 -480 Descending Los Angeles Center
06:28AM 33.5469 -118.3792 46° Northeast 371 427 10,000 -780 Descending Los Angeles Center
06:29AM 33.6069 -118.3036 50° Northeast 322 371 8,700 -1,260 Descending Los Angeles Center
06:30AM 33.6669 -118.2178 49° Northeast 303 349 7,500 -840 Descending Los Angeles Center
06:31AM 33.7117 -118.1564 50° Northeast 283 326 7,100 -300 Descending Los Angeles Center
06:32AM 33.7567 -118.0925 38° Northeast 268 308 7,000 -60 Descending Los Angeles Center
06:33AM 33.8031 -118.0486 North 236 272 7,000 -360 Level Los Angeles Center
06:34AM 33.8597 -118.0375 North 206 237 6,400 -900 Descending Los Angeles Center
06:35AM 33.9142 -118.0286 341° North 195 224 5,200 -1,200 Descending Los Angeles Center
06:36AM 33.9597 -118.0472 278° West 195 224 4,100 -1,140 Descending Los Angeles Center
06:37AM 33.9672 -118.1100 262° West 158 182 3,000 -780 Descending Los Angeles Center
06:38AM 33.9597 -118.1772 264° West 164 189 2,600 -300 Descending Los Angeles Center
06:39AM 33.9544 -118.2422 263° West 180 207 2,500 -480 Descending Los Angeles Center
06:40AM 33.9494 -118.2922 260° West 179 206 1,700 -780 Descending Los Angeles Center
06:41AM 33.9422 -118.3397 266° West 163 188 1,000 -780 Descending Los Angeles Center
06:42AM 33.9394 -118.3847 266° West 150 173 200 -840 Descending Los Angeles Center